Aeroporto :
LOGIN :

Iscrizione | Disclaimer

   EN    FR    IT 

 










Sommario :    VFR   VFR Marginale   IFR   IFR Intensivo   IFR Molto Intensivo
Visibilità : 
Base nubi : 
>= 8 km
>= 3000ft
5 / 8 km
1000 / 3000 ft
1500m / 5 km
500 / 1000 ft
800 / 1500m
200 / 500 ft
< 800m
< 200 ft
Simboli :   Temporali  Nebbia  Neve Forte  Precipitazioni Forti  Vento > 20 kt
SIGMETs :   Varie  Temporali  Ghiacco  Turbolenza  Onda orograficha  Ceneri Vulcaniche






- Altitudine del aeroporto : 5600 ft
- Codice IATA : SMV


LSZS - Samedan

ULTIMO METAR :
  • 171720Z AUTO 16006KT 130V230 1600 -SN BR OVC007 OVC013 OVC019 M00/M01 Q1001

METARs OBSOLETI :
  • 171650Z AUTO 17005KT 120V230 4900 -SN BR OVC032 OVC037 OVC045 00/M01 Q1000
  • 171620Z AUTO 15004KT 110V210 2400 -SN OVC009 OVC014 OVC020 00/M00 Q1000
  • 171550Z 05005KT 1500 -SN BKN004 OVC011 OVC013 M00/M00 Q0999 R/SNOCLO RMK S
  • 171520Z 02011KT 0100 +SN BKN004 OVC011 OVC013 M02/M02 Q0999 R/SNOCLO RMK R
  • 171450Z 01012KT 0100 +SN BKN004 OVC011 OVC013 M02/M02 Q0998 R/SNOCLO RMK Q

TAF TAF LSZS
Valido dal 17 a 15 ore il 18 a 00 ore UTC


171425Z 1715/1724 VRB04KT 5000 -SN BKN028 TX00/1715Z
TEMPO 1715/1724 NSW
PROB30
TEMPO 1715/1718 1200 SN
ATIS : +41 81 834 93 24



MetMap, La meteo Aeronautica in un colpo d'occhio ! - Copyright ORBIFLY Dicembre 2007 - Disclaimer

ORBIFLY MET'MAP TEAM :

Programmazione e sviluppo : Alexandra Zaïnal
Concezione e sviluppo : Baudouin d'Aumeries
Co-Programmazione e sviluppo : Marc-Olivier Méhu
Supporto tecnico e logistico : Manuel Goepfert
Aiuto per la traduzione : Arnaldo La Scala

Contatto : metmap@orbifly.com




FONTI E CREDITI :

   NOAA